sensor_id;sensor_type;location;lat;lon;timestamp;pressure;altitude;pressure_sealevel;temperature;humidity
50434;BME280;36361;38.954;-9.002;2023-03-21T00:00:00;101135.34;;;16.36;100.00
50434;BME280;36361;38.954;-9.002;2023-03-21T00:01:01;101129.66;;;16.26;100.00
50434;BME280;36361;38.954;-9.002;2023-03-21T00:02:04;101136.03;;;16.03;100.00
50434;BME280;36361;38.954;-9.002;2023-03-21T00:03:05;101132.69;;;16.01;100.00
50434;BME280;36361;38.954;-9.002;2023-03-21T00:04:06;101124.44;;;16.12;100.00
50434;BME280;36361;38.954;-9.002;2023-03-21T00:05:07;101135.41;;;15.89;100.00
50434;BME280;36361;38.954;-9.002;2023-03-21T00:06:10;101137.56;;;15.87;100.00
50434;BME280;36361;38.954;-9.002;2023-03-21T00:07:11;101134.94;;;15.80;100.00
50434;BME280;36361;38.954;-9.002;2023-03-21T00:08:11;101134.72;;;15.82;100.00
50434;BME280;36361;38.954;-9.002;2023-03-21T00:09:12;101138.50;;;15.57;100.00
50434;BME280;36361;38.954;-9.002;2023-03-21T00:10:13;101135.38;;;15.42;100.00
50434;BME280;36361;38.954;-9.002;2023-03-21T00:11:14;101131.38;;;15.15;100.00
50434;BME280;36361;38.954;-9.002;2023-03-21T00:12:15;101118.81;;;15.37;100.00
50434;BME280;36361;38.954;-9.002;2023-03-21T00:13:16;101135.03;;;15.08;100.00
50434;BME280;36361;38.954;-9.002;2023-03-21T00:14:18;101129.19;;;15.05;100.00
50434;BME280;36361;38.954;-9.002;2023-03-21T00:15:20;101139.13;;;15.18;100.00
50434;BME280;36361;38.954;-9.002;2023-03-21T00:16:20;101133.44;;;15.19;100.00
50434;BME280;36361;38.954;-9.002;2023-03-21T00:17:23;101127.28;;;14.94;100.00
50434;BME280;36361;38.954;-9.002;2023-03-21T00:18:24;101123.38;;;15.13;100.00
50434;BME280;36361;38.954;-9.002;2023-03-21T00:19:25;101123.97;;;15.03;100.00
50434;BME280;36361;38.954;-9.002;2023-03-21T00:20:32;101136.16;;;14.89;100.00
50434;BME280;36361;38.954;-9.002;2023-03-21T00:21:37;101131.53;;;14.90;100.00
50434;BME280;36361;38.954;-9.002;2023-03-21T00:22:37;101132.84;;;14.87;100.00
50434;BME280;36361;38.954;-9.002;2023-03-21T00:23:38;101131.53;;;14.90;100.00
50434;BME280;36361;38.954;-9.002;2023-03-21T00:24:39;101136.97;;;14.78;100.00
50434;BME280;36361;38.954;-9.002;2023-03-21T00:25:40;101133.16;;;14.79;100.00
50434;BME280;36361;38.954;-9.002;2023-03-21T00:26:41;101141.84;;;14.76;100.00
50434;BME280;36361;38.954;-9.002;2023-03-21T00:27:41;101143.53;;;14.77;100.00
50434;BME280;36361;38.954;-9.002;2023-03-21T00:28:42;101135.06;;;14.48;100.00
50434;BME280;36361;38.954;-9.002;2023-03-21T00:29:43;101137.00;;;14.60;100.00
50434;BME280;36361;38.954;-9.002;2023-03-21T00:30:43;101138.22;;;14.64;100.00
50434;BME280;36361;38.954;-9.002;2023-03-21T00:31:44;101134.28;;;14.60;100.00
50434;BME280;36361;38.954;-9.002;2023-03-21T00:32:46;101131.44;;;14.66;100.00
50434;BME280;36361;38.954;-9.002;2023-03-21T00:33:49;101131.06;;;14.26;100.00
50434;BME280;36361;38.954;-9.002;2023-03-21T00:34:50;101124.59;;;14.39;100.00
50434;BME280;36361;38.954;-9.002;2023-03-21T00:35:52;101133.19;;;14.42;100.00
50434;BME280;36361;38.954;-9.002;2023-03-21T00:36:53;101127.13;;;14.40;100.00
50434;BME280;36361;38.954;-9.002;2023-03-21T00:37:53;101139.72;;;14.41;100.00
50434;BME280;36361;38.954;-9.002;2023-03-21T00:38:57;101132.59;;;14.40;100.00
50434;BME280;36361;38.954;-9.002;2023-03-21T00:40:05;101130.63;;;14.29;100.00
50434;BME280;36361;38.954;-9.002;2023-03-21T00:41:11;101135.94;;;14.06;100.00
50434;BME280;36361;38.954;-9.002;2023-03-21T00:42:17;101138.97;;;13.98;100.00
50434;BME280;36361;38.954;-9.002;2023-03-21T00:43:21;101134.72;;;14.02;100.00
50434;BME280;36361;38.954;-9.002;2023-03-21T00:44:29;101131.00;;;14.14;100.00
50434;BME280;36361;38.954;-9.002;2023-03-21T00:45:36;101131.59;;;14.16;100.00
50434;BME280;36361;38.954;-9.002;2023-03-21T00:46:37;101128.31;;;14.26;100.00
50434;BME280;36361;38.954;-9.002;2023-03-21T00:47:39;101124.69;;;14.14;100.00
50434;BME280;36361;38.954;-9.002;2023-03-21T00:48:40;101130.16;;;13.95;100.00
50434;BME280;36361;38.954;-9.002;2023-03-21T00:49:41;101130.31;;;13.82;100.00
50434;BME280;36361;38.954;-9.002;2023-03-21T00:50:44;101126.03;;;13.86;100.00
50434;BME280;36361;38.954;-9.002;2023-03-21T00:51:46;101134.41;;;13.91;100.00
50434;BME280;36361;38.954;-9.002;2023-03-21T00:52:50;101129.25;;;13.58;100.00
50434;BME280;36361;38.954;-9.002;2023-03-21T00:53:56;101133.38;;;13.68;100.00
50434;BME280;36361;38.954;-9.002;2023-03-21T00:55:01;101127.22;;;13.54;100.00
50434;BME280;36361;38.954;-9.002;2023-03-21T00:56:02;101127.22;;;13.54;100.00
50434;BME280;36361;38.954;-9.002;2023-03-21T00:57:03;101125.41;;;13.66;100.00
50434;BME280;36361;38.954;-9.002;2023-03-21T00:58:05;101124.63;;;13.59;100.00
50434;BME280;36361;38.954;-9.002;2023-03-21T00:59:06;101123.72;;;13.65;100.00
50434;BME280;36361;38.954;-9.002;2023-03-21T01:00:08;101124.50;;;13.72;100.00
50434;BME280;36361;38.954;-9.002;2023-03-21T01:01:12;101121.28;;;13.57;100.00
50434;BME280;36361;38.954;-9.002;2023-03-21T01:02:13;101125.88;;;13.63;100.00
50434;BME280;36361;38.954;-9.002;2023-03-21T01:03:21;101127.06;;;13.67;100.00
50434;BME280;36361;38.954;-9.002;2023-03-21T01:04:29;101128.63;;;13.81;100.00
50434;BME280;36361;38.954;-9.002;2023-03-21T01:05:32;101126.88;;;13.87;100.00
50434;BME280;36361;38.954;-9.002;2023-03-21T01:06:53;101127.34;;;13.84;100.00
50434;BME280;36361;38.954;-9.002;2023-03-21T01:07:54;101130.59;;;13.74;100.00
50434;BME280;36361;38.954;-9.002;2023-03-21T01:08:55;101125.72;;;13.76;100.00
50434;BME280;36361;38.954;-9.002;2023-03-21T01:09:56;101130.91;;;13.84;100.00
50434;BME280;36361;38.954;-9.002;2023-03-21T01:11:02;101128.63;;;13.81;100.00
50434;BME280;36361;38.954;-9.002;2023-03-21T01:12:03;101133.47;;;13.79;100.00
50434;BME280;36361;38.954;-9.002;2023-03-21T01:13:05;101135.28;;;13.42;100.00
50434;BME280;36361;38.954;-9.002;2023-03-21T01:14:05;101127.56;;;13.32;100.00
50434;BME280;36361;38.954;-9.002;2023-03-21T01:15:06;101125.19;;;13.43;100.00
50434;BME280;36361;38.954;-9.002;2023-03-21T01:16:08;101117.25;;;13.34;100.00
50434;BME280;36361;38.954;-9.002;2023-03-21T01:17:09;101128.97;;;13.42;100.00
50434;BME280;36361;38.954;-9.002;2023-03-21T01:18:10;101123.41;;;13.30;100.00
50434;BME280;36361;38.954;-9.002;2023-03-21T01:19:14;101123.22;;;13.25;100.00
50434;BME280;36361;38.954;-9.002;2023-03-21T01:20:16;101125.91;;;13.00;100.00
50434;BME280;36361;38.954;-9.002;2023-03-21T01:21:17;101129.56;;;13.19;100.00
50434;BME280;36361;38.954;-9.002;2023-03-21T01:22:18;101131.78;;;12.97;100.00
50434;BME280;36361;38.954;-9.002;2023-03-21T01:23:19;101130.38;;;12.88;100.00
50434;BME280;36361;38.954;-9.002;2023-03-21T01:24:20;101126.47;;;12.70;100.00
50434;BME280;36361;38.954;-9.002;2023-03-21T01:25:21;101122.38;;;12.93;100.00
50434;BME280;36361;38.954;-9.002;2023-03-21T01:26:22;101129.31;;;12.89;100.00
50434;BME280;36361;38.954;-9.002;2023-03-21T01:27:23;101123.34;;;13.05;100.00
50434;BME280;36361;38.954;-9.002;2023-03-21T01:28:26;101130.81;;;13.16;100.00
50434;BME280;36361;38.954;-9.002;2023-03-21T01:29:27;101133.91;;;12.95;100.00
50434;BME280;36361;38.954;-9.002;2023-03-21T01:30:28;101127.22;;;12.91;100.00
50434;BME280;36361;38.954;-9.002;2023-03-21T01:31:29;101126.88;;;12.80;100.00
50434;BME280;36361;38.954;-9.002;2023-03-21T01:32:30;101116.88;;;12.99;100.00
50434;BME280;36361;38.954;-9.002;2023-03-21T01:33:32;101126.78;;;12.94;100.00
50434;BME280;36361;38.954;-9.002;2023-03-21T01:34:33;101128.44;;;12.95;100.00
50434;BME280;36361;38.954;-9.002;2023-03-21T01:35:35;101126.31;;;12.97;100.00
50434;BME280;36361;38.954;-9.002;2023-03-21T01:36:36;101128.84;;;12.98;100.00
50434;BME280;36361;38.954;-9.002;2023-03-21T01:37:41;101125.69;;;13.01;100.00
50434;BME280;36361;38.954;-9.002;2023-03-21T01:38:46;101128.00;;;12.98;100.00
50434;BME280;36361;38.954;-9.002;2023-03-21T01:39:50;101123.50;;;12.78;100.00
50434;BME280;36361;38.954;-9.002;2023-03-21T01:40:52;101125.16;;;12.79;100.00
50434;BME280;36361;38.954;-9.002;2023-03-21T01:42:05;101126.13;;;12.60;100.00
50434;BME280;36361;38.954;-9.002;2023-03-21T01:43:22;101120.34;;;12.81;100.00
50434;BME280;36361;38.954;-9.002;2023-03-21T01:44:24;101112.84;;;13.02;100.00
50434;BME280;36361;38.954;-9.002;2023-03-21T01:47:39;101115.75;;;13.38;100.00
50434;BME280;36361;38.954;-9.002;2023-03-21T01:49:19;101122.84;;;13.21;100.00
50434;BME280;36361;38.954;-9.002;2023-03-21T01:50:23;101119.44;;;13.26;100.00
50434;BME280;36361;38.954;-9.002;2023-03-21T01:52:00;101118.19;;;13.22;100.00
50434;BME280;36361;38.954;-9.002;2023-03-21T01:53:02;101120.22;;;13.33;100.00
50434;BME280;36361;38.954;-9.002;2023-03-21T01:54:10;101118.16;;;13.28;100.00
50434;BME280;36361;38.954;-9.002;2023-03-21T01:55:15;101116.81;;;13.37;100.00
50434;BME280;36361;38.954;-9.002;2023-03-21T01:56:39;101117.25;;;13.34;100.00
50434;BME280;36361;38.954;-9.002;2023-03-21T01:57:50;101109.22;;;13.40;100.00
50434;BME280;36361;38.954;-9.002;2023-03-21T01:59:00;101112.50;;;13.23;100.00
50434;BME280;36361;38.954;-9.002;2023-03-21T02:00:26;101117.91;;;12.98;100.00
50434;BME280;36361;38.954;-9.002;2023-03-21T02:01:39;101118.84;;;12.86;100.00
50434;BME280;36361;38.954;-9.002;2023-03-21T02:02:45;101115.09;;;13.12;100.00
50434;BME280;36361;38.954;-9.002;2023-03-21T02:04:13;101108.72;;;12.93;100.00
50434;BME280;36361;38.954;-9.002;2023-03-21T02:05:36;101108.03;;;12.66;100.00
50434;BME280;36361;38.954;-9.002;2023-03-21T02:07:50;101095.50;;;12.90;100.00
50434;BME280;36361;38.954;-9.002;2023-03-21T02:08:53;101101.84;;;12.84;100.00
50434;BME280;36361;38.954;-9.002;2023-03-21T02:09:54;101104.47;;;12.97;100.00
50434;BME280;36361;38.954;-9.002;2023-03-21T02:10:57;101101.59;;;12.92;100.00
50434;BME280;36361;38.954;-9.002;2023-03-21T02:12:08;101094.34;;;13.04;100.00
50434;BME280;36361;38.954;-9.002;2023-03-21T02:13:10;101099.56;;;13.05;100.00
50434;BME280;36361;38.954;-9.002;2023-03-21T02:14:16;101091.53;;;12.86;100.00
50434;BME280;36361;38.954;-9.002;2023-03-21T02:15:28;101091.19;;;12.75;100.00
50434;BME280;36361;38.954;-9.002;2023-03-21T02:21:29;101099.41;;;13.00;100.00
50434;BME280;36361;38.954;-9.002;2023-03-21T02:27:13;101086.25;;;12.91;100.00
50434;BME280;36361;38.954;-9.002;2023-03-21T02:36:43;101078.81;;;12.98;100.00
50434;BME280;36361;38.954;-9.002;2023-03-21T02:37:47;101086.25;;;12.91;100.00
50434;BME280;36361;38.954;-9.002;2023-03-21T02:39:01;101080.16;;;12.89;100.00
50434;BME280;36361;38.954;-9.002;2023-03-21T02:40:15;101080.28;;;13.00;100.00
50434;BME280;36361;38.954;-9.002;2023-03-21T02:44:23;101078.63;;;12.99;100.00
50434;BME280;36361;38.954;-9.002;2023-03-21T02:45:40;101079.28;;;13.26;100.00
50434;BME280;36361;38.954;-9.002;2023-03-21T02:47:55;101075.53;;;13.21;100.00
50434;BME280;36361;38.954;-9.002;2023-03-21T02:49:04;101071.50;;;13.23;100.00
50434;BME280;36361;38.954;-9.002;2023-03-21T02:50:12;101071.13;;;13.20;100.00
50434;BME280;36361;38.954;-9.002;2023-03-21T02:51:18;101075.56;;;13.14;100.00
50434;BME280;36361;38.954;-9.002;2023-03-21T02:52:24;101066.56;;;13.07;100.00
50434;BME280;36361;38.954;-9.002;2023-03-21T02:53:30;101076.78;;;12.93;100.00
50434;BME280;36361;38.954;-9.002;2023-03-21T02:54:33;101075.47;;;12.96;100.00
50434;BME280;36361;38.954;-9.002;2023-03-21T02:55:36;101081.22;;;12.88;100.00
50434;BME280;36361;38.954;-9.002;2023-03-21T02:56:40;101079.44;;;12.68;100.00
50434;BME280;36361;38.954;-9.002;2023-03-21T02:57:43;101076.91;;;12.73;100.00
50434;BME280;36361;38.954;-9.002;2023-03-21T02:58:47;101079.28;;;12.95;100.00
50434;BME280;36361;38.954;-9.002;2023-03-21T02:59:49;101082.47;;;12.92;100.00
50434;BME280;36361;38.954;-9.002;2023-03-21T03:00:52;101081.63;;;13.16;100.00
50434;BME280;36361;38.954;-9.002;2023-03-21T03:02:06;101078.66;;;13.24;100.00
50434;BME280;36361;38.954;-9.002;2023-03-21T03:03:07;101076.97;;;13.23;100.00
50434;BME280;36361;38.954;-9.002;2023-03-21T03:04:22;101085.88;;;13.12;100.00
50434;BME280;36361;38.954;-9.002;2023-03-21T03:05:30;101076.09;;;12.98;100.00
50434;BME280;36361;38.954;-9.002;2023-03-21T03:10:15;101067.84;;;13.04;100.00
50434;BME280;36361;38.954;-9.002;2023-03-21T03:11:27;101072.06;;;12.75;100.00
50434;BME280;36361;38.954;-9.002;2023-03-21T03:15:28;101071.72;;;12.65;100.00
50434;BME280;36361;38.954;-9.002;2023-03-21T03:18:54;101061.91;;;12.51;100.00
50434;BME280;36361;38.954;-9.002;2023-03-21T03:22:12;101066.50;;;12.57;100.00
50434;BME280;36361;38.954;-9.002;2023-03-21T03:23:33;101061.66;;;12.59;100.00
50434;BME280;36361;38.954;-9.002;2023-03-21T03:24:42;101063.56;;;12.52;100.00
50434;BME280;36361;38.954;-9.002;2023-03-21T03:26:03;101063.44;;;12.40;100.00
50434;BME280;36361;38.954;-9.002;2023-03-21T03:27:09;101065.69;;;12.50;100.00
50434;BME280;36361;38.954;-9.002;2023-03-21T03:28:14;101065.28;;;12.53;100.00
50434;BME280;36361;38.954;-9.002;2023-03-21T03:29:17;101061.88;;;12.58;100.00
50434;BME280;36361;38.954;-9.002;2023-03-21T03:30:20;101060.81;;;12.59;100.00
50434;BME280;36361;38.954;-9.002;2023-03-21T03:31:26;101060.22;;;12.50;100.00
50434;BME280;36361;38.954;-9.002;2023-03-21T03:32:41;101062.72;;;12.58;100.00
50434;BME280;36361;38.954;-9.002;2023-03-21T03:33:48;101051.69;;;12.40;100.00
50434;BME280;36361;38.954;-9.002;2023-03-21T03:34:52;101060.22;;;12.50;100.00
50434;BME280;36361;38.954;-9.002;2023-03-21T03:36:03;101059.53;;;12.23;100.00
50434;BME280;36361;38.954;-9.002;2023-03-21T03:37:08;101053.75;;;12.00;100.00
50434;BME280;36361;38.954;-9.002;2023-03-21T03:38:11;101059.28;;;11.73;100.00
50434;BME280;36361;38.954;-9.002;2023-03-21T03:39:14;101058.00;;;11.89;100.00
50434;BME280;36361;38.954;-9.002;2023-03-21T03:41:50;101050.50;;;12.22;100.00
50434;BME280;36361;38.954;-9.002;2023-03-21T03:42:59;101052.81;;;12.26;100.00
50434;BME280;36361;38.954;-9.002;2023-03-21T03:44:13;101048.69;;;12.10;100.00
50434;BME280;36361;38.954;-9.002;2023-03-21T03:45:27;101039.09;;;11.94;100.00
50434;BME280;36361;38.954;-9.002;2023-03-21T03:46:33;101035.53;;;11.93;100.00
50434;BME280;36361;38.954;-9.002;2023-03-21T03:48:54;101032.81;;;11.87;100.00
50434;BME280;36361;38.954;-9.002;2023-03-21T03:51:18;101038.72;;;11.84;100.00
50434;BME280;36361;38.954;-9.002;2023-03-21T03:53:29;101035.13;;;11.90;100.00
50434;BME280;36361;38.954;-9.002;2023-03-21T03:54:11;101040.19;;;11.80;100.00
50434;BME280;36361;38.954;-9.002;2023-03-21T03:55:15;101032.44;;;11.63;100.00
50434;BME280;36361;38.954;-9.002;2023-03-21T03:56:18;101036.25;;;11.49;100.00
50434;BME280;36361;38.954;-9.002;2023-03-21T03:57:20;101037.06;;;11.63;100.00
50434;BME280;36361;38.954;-9.002;2023-03-21T03:58:23;101034.13;;;11.64;100.00
50434;BME280;36361;38.954;-9.002;2023-03-21T03:59:25;101036.47;;;11.54;100.00
50434;BME280;36361;38.954;-9.002;2023-03-21T04:00:37;101043.78;;;11.80;100.00
50434;BME280;36361;38.954;-9.002;2023-03-21T04:01:38;101036.19;;;11.89;100.00
50434;BME280;36361;38.954;-9.002;2023-03-21T04:02:38;101036.97;;;11.96;100.00
50434;BME280;36361;38.954;-9.002;2023-03-21T04:03:45;101027.31;;;12.00;100.00
50434;BME280;36361;38.954;-9.002;2023-03-21T04:04:47;101032.53;;;12.08;100.00
50434;BME280;36361;38.954;-9.002;2023-03-21T04:05:52;101036.94;;;12.09;100.00
50434;BME280;36361;38.954;-9.002;2023-03-21T04:06:54;101033.16;;;12.10;100.00
50434;BME280;36361;38.954;-9.002;2023-03-21T04:07:57;101034.59;;;12.19;100.00
50434;BME280;36361;38.954;-9.002;2023-03-21T04:09:12;101039.44;;;12.17;100.00
50434;BME280;36361;38.954;-9.002;2023-03-21T04:10:16;101038.03;;;12.40;100.00
50434;BME280;36361;38.954;-9.002;2023-03-21T04:11:17;101042.97;;;12.56;100.00
50434;BME280;36361;38.954;-9.002;2023-03-21T04:12:22;101053.91;;;12.56;100.00
50434;BME280;36361;38.954;-9.002;2023-03-21T04:13:49;101054.84;;;12.37;100.00
50434;BME280;36361;38.954;-9.002;2023-03-21T04:14:56;101048.78;;;12.35;100.00
50434;BME280;36361;38.954;-9.002;2023-03-21T04:15:56;101052.84;;;12.19;100.00
50434;BME280;36361;38.954;-9.002;2023-03-21T04:16:57;101051.22;;;12.05;100.00
50434;BME280;36361;38.954;-9.002;2023-03-21T04:17:58;101052.56;;;11.89;100.00
50434;BME280;36361;38.954;-9.002;2023-03-21T04:18:59;101051.94;;;11.60;100.00
50434;BME280;36361;38.954;-9.002;2023-03-21T04:19:59;101047.53;;;11.59;100.00
50434;BME280;36361;38.954;-9.002;2023-03-21T04:21:01;101051.72;;;11.82;100.00
50434;BME280;36361;38.954;-9.002;2023-03-21T04:22:04;101052.56;;;11.89;100.00
50434;BME280;36361;38.954;-9.002;2023-03-21T04:23:10;101055.28;;;11.89;100.00
50434;BME280;36361;38.954;-9.002;2023-03-21T04:24:16;101052.94;;;11.99;100.00
50434;BME280;36361;38.954;-9.002;2023-03-21T04:25:17;101051.06;;;11.93;100.00
50434;BME280;36361;38.954;-9.002;2023-03-21T04:26:18;101051.03;;;12.00;100.00
50434;BME280;36361;38.954;-9.002;2023-03-21T04:27:35;101050.06;;;11.81;100.00
50434;BME280;36361;38.954;-9.002;2023-03-21T04:28:56;101043.75;;;11.60;100.00
50434;BME280;36361;38.954;-9.002;2023-03-21T04:29:56;101036.41;;;11.67;100.00
50434;BME280;36361;38.954;-9.002;2023-03-21T04:31:20;101033.69;;;11.67;100.00
50434;BME280;36361;38.954;-9.002;2023-03-21T04:32:25;101037.69;;;11.58;100.00
50434;BME280;36361;38.954;-9.002;2023-03-21T04:33:39;101039.59;;;11.58;100.00
50434;BME280;36361;38.954;-9.002;2023-03-21T04:34:43;101037.28;;;11.61;100.00
50434;BME280;36361;38.954;-9.002;2023-03-21T04:35:49;101040.84;;;11.62;100.00
50434;BME280;36361;38.954;-9.002;2023-03-21T04:36:51;101041.03;;;11.74;100.00
50434;BME280;36361;38.954;-9.002;2023-03-21T04:37:54;101041.00;;;11.87;100.00
50434;BME280;36361;38.954;-9.002;2023-03-21T04:38:56;101039.16;;;11.81;100.00
50434;BME280;36361;38.954;-9.002;2023-03-21T04:40:02;101042.94;;;11.80;100.00
50434;BME280;36361;38.954;-9.002;2023-03-21T04:41:07;101037.47;;;11.80;100.00
50434;BME280;36361;38.954;-9.002;2023-03-21T04:42:07;101037.69;;;11.72;100.00
50434;BME280;36361;38.954;-9.002;2023-03-21T04:43:08;101040.81;;;11.82;100.00
50434;BME280;36361;38.954;-9.002;2023-03-21T04:44:13;101036.19;;;11.76;100.00
50434;BME280;36361;38.954;-9.002;2023-03-21T04:45:15;101038.09;;;11.68;100.00
50434;BME280;36361;38.954;-9.002;2023-03-21T04:46:20;101039.75;;;11.83;100.00
50434;BME280;36361;38.954;-9.002;2023-03-21T04:47:25;101034.06;;;11.78;100.00
50434;BME280;36361;38.954;-9.002;2023-03-21T04:48:31;101037.22;;;11.88;100.00
50434;BME280;36361;38.954;-9.002;2023-03-21T04:49:34;101046.66;;;11.92;100.00
50434;BME280;36361;38.954;-9.002;2023-03-21T04:50:35;101031.53;;;11.96;100.00
50434;BME280;36361;38.954;-9.002;2023-03-21T04:51:36;101043.31;;;11.90;100.00
50434;BME280;36361;38.954;-9.002;2023-03-21T04:52:43;101043.53;;;11.82;100.00
50434;BME280;36361;38.954;-9.002;2023-03-21T04:53:46;101048.38;;;11.80;100.00
50434;BME280;36361;38.954;-9.002;2023-03-21T04:54:48;101039.56;;;11.64;100.00
50434;BME280;36361;38.954;-9.002;2023-03-21T04:55:49;101051.75;;;11.62;100.00
50434;BME280;36361;38.954;-9.002;2023-03-21T04:56:50;101043.81;;;11.40;100.00
50434;BME280;36361;38.954;-9.002;2023-03-21T04:57:51;101039.59;;;11.51;100.00
50434;BME280;36361;38.954;-9.002;2023-03-21T04:58:54;101032.84;;;11.60;100.00
50434;BME280;36361;38.954;-9.002;2023-03-21T04:59:55;101039.97;;;11.75;100.00
50434;BME280;36361;38.954;-9.002;2023-03-21T05:00:56;101035.75;;;11.92;100.00
50434;BME280;36361;38.954;-9.002;2023-03-21T05:01:57;101029.00;;;11.94;100.00
50434;BME280;36361;38.954;-9.002;2023-03-21T05:02:58;101032.41;;;11.83;100.00
50434;BME280;36361;38.954;-9.002;2023-03-21T05:04:01;101030.22;;;12.05;100.00
50434;BME280;36361;38.954;-9.002;2023-03-21T05:05:05;101034.34;;;12.21;100.00
50434;BME280;36361;38.954;-9.002;2023-03-21T05:06:10;101036.56;;;11.99;100.00
50434;BME280;36361;38.954;-9.002;2023-03-21T05:07:11;101043.94;;;11.85;100.00
50434;BME280;36361;38.954;-9.002;2023-03-21T05:08:12;101041.63;;;11.76;100.00
50434;BME280;36361;38.954;-9.002;2023-03-21T05:09:13;101043.56;;;11.55;100.00
50434;BME280;36361;38.954;-9.002;2023-03-21T05:10:14;101039.41;;;11.46;100.00
50434;BME280;36361;38.954;-9.002;2023-03-21T05:11:15;101039.19;;;11.54;100.00
50434;BME280;36361;38.954;-9.002;2023-03-21T05:12:16;101043.56;;;11.55;100.00
50434;BME280;36361;38.954;-9.002;2023-03-21T05:13:18;101042.97;;;11.53;100.00
50434;BME280;36361;38.954;-9.002;2023-03-21T05:14:23;101047.56;;;11.53;100.00
50434;BME280;36361;38.954;-9.002;2023-03-21T05:15:27;101045.47;;;11.48;100.00
50434;BME280;36361;38.954;-9.002;2023-03-21T05:16:28;101047.13;;;11.62;100.00
50434;BME280;36361;38.954;-9.002;2023-03-21T05:17:30;101037.47;;;11.66;100.00
50434;BME280;36361;38.954;-9.002;2023-03-21T05:18:32;101042.09;;;11.59;100.00
50434;BME280;36361;38.954;-9.002;2023-03-21T05:19:47;101040.19;;;11.73;100.00
50434;BME280;36361;38.954;-9.002;2023-03-21T05:20:51;101032.84;;;11.60;100.00
50434;BME280;36361;38.954;-9.002;2023-03-21T05:21:56;101031.63;;;11.56;100.00
50434;BME280;36361;38.954;-9.002;2023-03-21T05:23:02;101031.63;;;11.50;100.00
50434;BME280;36361;38.954;-9.002;2023-03-21T05:24:07;101030.38;;;11.52;100.00
50434;BME280;36361;38.954;-9.002;2023-03-21T05:25:12;101038.72;;;11.71;100.00
50434;BME280;36361;38.954;-9.002;2023-03-21T05:26:31;101038.28;;;11.74;100.00
50434;BME280;36361;38.954;-9.002;2023-03-21T05:27:42;101025.69;;;11.86;100.00
50434;BME280;36361;38.954;-9.002;2023-03-21T05:28:45;101033.25;;;11.84;100.00
50434;BME280;36361;38.954;-9.002;2023-03-21T05:29:48;101028.19;;;11.87;100.00
50434;BME280;36361;38.954;-9.002;2023-03-21T05:30:49;101021.88;;;11.93;100.00
50434;BME280;36361;38.954;-9.002;2023-03-21T05:31:50;101027.56;;;11.99;100.00
50434;BME280;36361;38.954;-9.002;2023-03-21T05:32:52;101023.53;;;12.08;100.00
50434;BME280;36361;38.954;-9.002;2023-03-21T05:33:54;101031.81;;;12.26;100.00
50434;BME280;36361;38.954;-9.002;2023-03-21T05:34:54;101036.75;;;12.42;100.00
50434;BME280;36361;38.954;-9.002;2023-03-21T05:35:57;101044.75;;;12.44;100.00
50434;BME280;36361;38.954;-9.002;2023-03-21T05:37:02;101048.94;;;12.40;100.00
50434;BME280;36361;38.954;-9.002;2023-03-21T05:38:32;101037.69;;;12.30;100.00
50434;BME280;36361;38.954;-9.002;2023-03-21T05:39:33;101046.50;;;12.25;100.00
50434;BME280;36361;38.954;-9.002;2023-03-21T05:40:49;101038.25;;;11.93;100.00
50434;BME280;36361;38.954;-9.002;2023-03-21T05:41:51;101042.06;;;11.86;100.00
50434;BME280;36361;38.954;-9.002;2023-03-21T05:42:52;101034.94;;;11.72;100.00
50434;BME280;36361;38.954;-9.002;2023-03-21T05:43:56;101038.72;;;11.71;100.00
50434;BME280;36361;38.954;-9.002;2023-03-21T05:44:57;101034.13;;;11.64;100.00
50434;BME280;36361;38.954;-9.002;2023-03-21T05:46:04;101039.56;;;11.64;100.00
50434;BME280;36361;38.954;-9.002;2023-03-21T05:47:05;101034.06;;;11.78;100.00
50434;BME280;36361;38.954;-9.002;2023-03-21T05:48:17;101037.47;;;11.73;100.00
50434;BME280;36361;38.954;-9.002;2023-03-21T05:49:38;101030.28;;;11.92;100.00
50434;BME280;36361;38.954;-9.002;2023-03-21T05:50:40;101026.13;;;11.83;100.00
50434;BME280;36361;38.954;-9.002;2023-03-21T05:51:49;101029.63;;;11.96;100.00
50434;BME280;36361;38.954;-9.002;2023-03-21T05:52:50;101030.28;;;11.99;100.00
50434;BME280;36361;38.954;-9.002;2023-03-21T05:53:51;101033.28;;;11.71;100.00
50434;BME280;36361;38.954;-9.002;2023-03-21T05:54:52;101036.25;;;11.56;100.00
50434;BME280;36361;38.954;-9.002;2023-03-21T05:55:56;101041.06;;;11.47;100.00
50434;BME280;36361;38.954;-9.002;2023-03-21T05:57:15;101036.47;;;11.41;100.00
50434;BME280;36361;38.954;-9.002;2023-03-21T05:58:38;101043.56;;;11.55;100.00
50434;BME280;36361;38.954;-9.002;2023-03-21T05:59:39;101046.69;;;11.65;100.00
50434;BME280;36361;38.954;-9.002;2023-03-21T06:00:40;101042.03;;;11.92;100.00
50434;BME280;36361;38.954;-9.002;2023-03-21T06:01:52;101042.03;;;12.37;100.00
50434;BME280;36361;38.954;-9.002;2023-03-21T06:02:56;101038.69;;;12.73;100.00
50434;BME280;36361;38.954;-9.002;2023-03-21T06:04:12;101039.16;;;13.20;100.00
50434;BME280;36361;38.954;-9.002;2023-03-21T06:05:13;101035.28;;;13.89;100.00
50434;BME280;36361;38.954;-9.002;2023-03-21T06:06:15;101031.81;;;13.82;100.00
50434;BME280;36361;38.954;-9.002;2023-03-21T06:07:29;101040.16;;;13.87;100.00
50434;BME280;36361;38.954;-9.002;2023-03-21T06:08:30;101035.16;;;13.84;100.00
50434;BME280;36361;38.954;-9.002;2023-03-21T06:09:31;101027.78;;;14.33;100.00
50434;BME280;36361;38.954;-9.002;2023-03-21T06:10:38;101028.13;;;14.07;100.00
50434;BME280;36361;38.954;-9.002;2023-03-21T06:11:45;101026.25;;;13.89;100.00
50434;BME280;36361;38.954;-9.002;2023-03-21T06:13:05;101015.94;;;13.91;100.00